Time;durP1;ratioP1;P1;durP2;ratioP2;P2;SDS_P1;SDS_P2;PMS_P1;PMS_P2;Temp;Humidity;BMP_temperature;BMP_pressure;BME280_temperature;BME280_humidity;BME280_pressure;Samples;Min_cycle;Max_cycle;Signal;HPM_P1;HPM_P2
2023/05/09 00:01:34;;;;;;;3.63;2.13;;;9.60;97.30;;;;;;5015677;28;20591;-88
2023/05/09 00:04:00;;;;;;;3.40;3.20;;;9.60;97.30;;;;;;5015301;28;20188;-88
2023/05/09 00:06:26;;;;;;;4.27;2.60;;;9.50;97.30;;;;;;5015405;28;20431;-87
2023/05/09 00:08:52;;;;;;;5.83;2.47;;;9.50;97.30;;;;;;5015290;28;20450;-88
2023/05/09 00:11:18;;;;;;;2.23;2.03;;;9.50;97.30;;;;;;5015113;28;20459;-88
2023/05/09 00:13:43;;;;;;;2.80;2.60;;;9.50;97.30;;;;;;5015288;28;20430;-88
2023/05/09 00:16:09;;;;;;;2.60;2.20;;;9.50;97.30;;;;;;5015289;28;20248;-88
2023/05/09 00:18:36;;;;;;;9.17;3.80;;;9.50;97.30;;;;;;5015424;28;20208;-89
2023/05/09 00:21:03;;;;;;;3.20;3.03;;;9.40;97.30;;;;;;5015133;28;20196;-88
2023/05/09 00:23:29;;;;;;;2.10;1.77;;;9.40;97.30;;;;;;5014830;28;20422;-87
2023/05/09 00:25:55;;;;;;;1.57;1.47;;;9.40;97.30;;;;;;5032950;28;20438;-88
2023/05/09 00:28:20;;;;;;;2.73;2.53;;;9.40;97.30;;;;;;5014907;28;20957;-86
2023/05/09 00:30:46;;;;;;;4.97;2.30;;;9.30;97.30;;;;;;5032612;28;20466;-88
2023/05/09 00:33:11;;;;;;;4.27;2.33;;;9.30;97.30;;;;;;5015167;28;20188;-87
2023/05/09 00:35:37;;;;;;;4.10;3.53;;;9.20;97.30;;;;;;5014822;28;20205;-88
2023/05/09 00:38:02;;;;;;;3.93;2.00;;;9.20;97.30;;;;;;5014505;28;20551;-88
2023/05/09 00:40:28;;;;;;;3.77;2.73;;;9.20;97.30;;;;;;5014719;28;20228;-88
2023/05/09 00:42:57;;;;;;;1.80;1.70;;;9.20;97.30;;;;;;5014646;28;20173;-88
2023/05/09 00:45:22;;;;;;;2.77;2.20;;;9.20;97.30;;;;;;5014284;28;20188;-89
2023/05/09 00:47:48;;;;;;;3.93;3.73;;;9.10;97.30;;;;;;5014728;28;20483;-87
2023/05/09 00:50:13;;;;;;;2.77;2.57;;;9.10;97.30;;;;;;5014714;28;20225;-88
2023/05/09 00:52:39;;;;;;;5.17;2.67;;;9.00;97.30;;;;;;5014393;28;20187;-87
2023/05/09 00:55:07;;;;;;;4.97;3.17;;;9.00;97.30;;;;;;5014822;28;20180;-87
2023/05/09 00:57:33;;;;;;;5.40;3.60;;;8.90;97.30;;;;;;5014415;28;20430;-88
2023/05/09 00:59:59;;;;;;;3.87;3.10;;;8.80;97.30;;;;;;5014636;28;20435;-89
2023/05/09 01:02:26;;;;;;;5.63;3.47;;;8.70;97.30;;;;;;5019843;28;20483;-88
2023/05/09 01:04:51;;;;;;;2.70;2.50;;;8.60;97.30;;;;;;5013828;28;20960;-87
2023/05/09 01:07:51;;;;;;;3.57;2.00;;;8.60;97.30;;;;;;5013171;28;20415;-88
2023/05/09 01:10:25;;;;;;;3.17;3.00;;;8.50;97.30;;;;;;5010154;28;20265;-88
2023/05/09 01:13:04;;;;;;;5.60;2.57;;;8.40;97.30;;;;;;5006749;28;20839;-88
2023/05/09 01:15:39;;;;;;;3.97;3.40;;;8.40;97.30;;;;;;5014070;28;20894;-87
2023/05/09 01:18:35;;;;;;;4.63;2.90;;;8.30;97.30;;;;;;5014331;28;20419;-87
2023/05/09 01:21:30;;;;;;;3.67;3.47;;;8.30;97.30;;;;;;5007724;28;20435;-87
2023/05/09 01:24:00;;;;;;;4.27;2.50;;;8.20;97.30;;;;;;5014225;28;20416;-88
2023/05/09 01:26:40;;;;;;;3.97;3.03;;;8.20;97.30;;;;;;5013940;28;20425;-88
2023/05/09 01:29:26;;;;;;;12.80;3.57;;;8.10;97.30;;;;;;5045183;28;20929;-88
2023/05/09 01:31:54;;;;;;;3.27;3.07;;;8.10;97.30;;;;;;5030780;28;20423;-90
2023/05/09 01:34:24;;;;;;;3.13;2.53;;;8.00;97.30;;;;;;5037821;28;20439;-90
2023/05/09 01:36:50;;;;;;;3.90;3.60;;;8.00;97.30;;;;;;5047427;28;20411;-90
2023/05/09 01:39:17;;;;;;;2.90;2.80;;;7.90;97.30;;;;;;5022538;28;20874;-88
2023/05/09 01:41:44;;;;;;;3.07;2.70;;;7.90;97.30;;;;;;5013344;28;20551;-89
2023/05/09 01:44:12;;;;;;;2.27;2.10;;;7.80;97.30;;;;;;5013636;28;20499;-88
2023/05/09 01:46:39;;;;;;;2.70;2.47;;;7.80;97.30;;;;;;5031346;28;20453;-88
2023/05/09 01:49:07;;;;;;;4.90;2.67;;;7.70;97.30;;;;;;5013553;28;20522;-88
2023/05/09 01:51:33;;;;;;;3.33;3.20;;;7.70;97.30;;;;;;5013241;28;21000;-88
2023/05/09 01:54:00;;;;;;;2.50;2.30;;;7.70;97.30;;;;;;5013258;28;20430;-88
2023/05/09 01:56:26;;;;;;;5.70;2.80;;;7.60;97.30;;;;;;5013015;28;20427;-88
2023/05/09 01:58:54;;;;;;;2.50;2.13;;;7.60;97.30;;;;;;5013138;28;20411;-88
2023/05/09 02:01:20;;;;;;;3.10;2.90;;;7.50;97.30;;;;;;5013324;28;20510;-88
2023/05/09 02:03:49;;;;;;;2.33;2.13;;;7.50;97.30;;;;;;5013165;28;20785;-88
2023/05/09 02:06:17;;;;;;;2.80;2.60;;;7.50;97.30;;;;;;5013123;28;20434;-87
2023/05/09 02:08:43;;;;;;;2.87;2.50;;;7.40;97.30;;;;;;5013299;28;21000;-88
2023/05/09 02:11:08;;;;;;;4.50;3.40;;;7.30;97.30;;;;;;5013386;28;20555;-89
2023/05/09 02:13:34;;;;;;;4.63;3.50;;;7.30;97.30;;;;;;5013400;28;20173;-88
2023/05/09 02:16:00;;;;;;;5.13;2.77;;;7.30;97.30;;;;;;5013722;28;20199;-87
2023/05/09 02:18:26;;;;;;;3.47;3.27;;;7.30;97.30;;;;;;5012699;28;20319;-86
2023/05/09 02:20:52;;;;;;;3.13;2.60;;;7.30;97.30;;;;;;5013223;28;20211;-88
2023/05/09 02:23:18;;;;;;;8.53;3.30;;;7.30;97.30;;;;;;5011693;28;20419;-89
2023/05/09 02:25:45;;;;;;;2.27;2.07;;;7.30;97.30;;;;;;5011274;28;20187;-88
2023/05/09 02:28:11;;;;;;;2.43;2.27;;;7.30;97.30;;;;;;5012312;28;20419;-88
2023/05/09 02:30:43;;;;;;;3.57;2.03;;;7.30;97.30;;;;;;5010996;28;20997;-88
2023/05/09 02:33:11;;;;;;;5.23;2.80;;;7.30;97.30;;;;;;5012370;28;20510;-88
2023/05/09 02:35:40;;;;;;;4.50;3.63;;;7.30;97.30;;;;;;5012600;28;20803;-87
2023/05/09 02:38:06;;;;;;;10.90;3.07;;;7.30;97.30;;;;;;5030218;28;20478;-88
2023/05/09 02:40:32;;;;;;;3.70;2.17;;;7.40;97.30;;;;;;5012485;28;20463;-87
2023/05/09 02:42:58;;;;;;;2.90;2.20;;;7.40;97.30;;;;;;5012443;28;20188;-89
2023/05/09 02:45:24;;;;;;;3.10;2.47;;;7.40;97.30;;;;;;5012733;28;20427;-87
2023/05/09 02:47:49;;;;;;;2.67;2.47;;;7.40;97.30;;;;;;5012550;28;20212;-88
2023/05/09 02:50:15;;;;;;;2.93;2.47;;;7.40;97.30;;;;;;5012130;28;20498;-88
2023/05/09 02:52:41;;;;;;;3.67;1.70;;;7.50;97.30;;;;;;5012562;28;20199;-88
2023/05/09 02:55:07;;;;;;;3.40;2.17;;;7.50;97.30;;;;;;5012654;28;20717;-88
2023/05/09 02:57:32;;;;;;;4.40;1.93;;;7.50;97.30;;;;;;5012637;28;20177;-87
2023/05/09 02:59:59;;;;;;;2.03;1.90;;;7.50;97.30;;;;;;5012868;28;20500;-88
2023/05/09 03:02:24;;;;;;;2.40;2.00;;;7.50;97.30;;;;;;5013370;28;20180;-88
2023/05/09 03:04:50;;;;;;;2.73;2.40;;;7.50;97.30;;;;;;5013483;28;20411;-88
2023/05/09 03:07:15;;;;;;;2.30;1.70;;;7.40;97.30;;;;;;5022297;28;20535;-90
2023/05/09 03:09:41;;;;;;;3.83;2.23;;;7.50;97.30;;;;;;5023171;28;20214;-88
2023/05/09 03:12:07;;;;;;;3.00;2.80;;;7.40;97.30;;;;;;5036252;28;20176;-88
2023/05/09 03:14:32;;;;;;;3.13;2.17;;;7.50;97.30;;;;;;5031347;28;20643;-88
2023/05/09 03:16:57;;;;;;;2.50;1.90;;;7.40;97.30;;;;;;5012006;28;20607;-89
2023/05/09 03:19:23;;;;;;;2.20;2.00;;;7.40;97.30;;;;;;5012144;28;20189;-88
2023/05/09 03:21:49;;;;;;;2.13;1.97;;;7.40;97.30;;;;;;5012238;28;20439;-87
2023/05/09 03:24:14;;;;;;;15.23;2.23;;;7.50;97.30;;;;;;5012487;28;20184;-89
2023/05/09 03:26:40;;;;;;;3.90;2.67;;;7.40;97.30;;;;;;5012295;28;20639;-88
2023/05/09 03:29:05;;;;;;;2.30;2.10;;;7.40;97.30;;;;;;5012238;28;20188;-88
2023/05/09 03:31:31;;;;;;;2.63;2.43;;;7.40;97.30;;;;;;5011984;28;20212;-88
2023/05/09 03:33:57;;;;;;;2.47;2.27;;;7.40;97.30;;;;;;5012486;28;20173;-89
2023/05/09 03:36:22;;;;;;;3.87;3.07;;;7.40;97.30;;;;;;5015826;28;20176;-87
2023/05/09 03:38:48;;;;;;;3.63;2.50;;;7.40;97.30;;;;;;5015740;28;20185;-88
2023/05/09 03:41:15;;;;;;;4.40;2.10;;;7.30;97.30;;;;;;5015526;28;20238;-87
2023/05/09 03:43:41;;;;;;;2.80;1.73;;;7.30;97.30;;;;;;5006667;28;20246;-87
2023/05/09 03:46:06;;;;;;;2.10;1.87;;;7.30;97.30;;;;;;5015154;28;20415;-87
2023/05/09 03:48:32;;;;;;;3.67;2.07;;;7.30;97.30;;;;;;5015324;28;20674;-88
2023/05/09 03:50:57;;;;;;;6.23;4.07;;;7.30;97.30;;;;;;5015458;28;20289;-88
2023/05/09 03:53:23;;;;;;;7.90;3.00;;;7.30;97.30;;;;;;5034068;28;20893;-88
2023/05/09 03:55:48;;;;;;;2.03;1.90;;;7.20;97.30;;;;;;5016026;28;20189;-87
2023/05/09 03:58:14;;;;;;;3.53;3.30;;;7.30;97.30;;;;;;5033877;28;20192;-87
2023/05/09 04:00:40;;;;;;;1.80;1.70;;;7.20;97.30;;;;;;5015811;28;20207;-87
2023/05/09 04:03:06;;;;;;;2.33;2.17;;;7.30;97.30;;;;;;5033776;28;20177;-87
2023/05/09 04:05:35;;;;;;;3.83;2.60;;;7.30;97.30;;;;;;5016006;28;20433;-88
2023/05/09 04:08:01;;;;;;;3.47;3.27;;;7.30;97.30;;;;;;5015878;28;20223;-88
2023/05/09 04:10:26;;;;;;;3.53;3.40;;;7.30;97.30;;;;;;5015689;28;20462;-88
2023/05/09 04:12:52;;;;;;;2.33;2.13;;;7.30;97.30;;;;;;5015700;28;20489;-88
2023/05/09 04:15:17;;;;;;;2.27;2.07;;;7.30;97.30;;;;;;5015665;28;20665;-87
2023/05/09 04:17:43;;;;;;;3.33;2.30;;;7.40;97.30;;;;;;5015818;28;20202;-88
2023/05/09 04:20:09;;;;;;;2.63;2.30;;;7.40;97.30;;;;;;5015401;28;20638;-87
2023/05/09 04:22:35;;;;;;;3.43;3.23;;;7.40;97.30;;;;;;5015344;28;20188;-89
2023/05/09 04:25:02;;;;;;;2.30;2.00;;;7.40;97.30;;;;;;5015296;28;20486;-88
2023/05/09 04:27:27;;;;;;;4.00;1.93;;;7.40;97.30;;;;;;5015119;28;20642;-88
2023/05/09 04:29:53;;;;;;;2.37;1.97;;;7.40;97.30;;;;;;5015242;28;20450;-87
2023/05/09 04:32:19;;;;;;;4.20;3.43;;;7.50;97.30;;;;;;5015463;28;20256;-87
2023/05/09 04:34:45;;;;;;;2.00;1.90;;;7.50;97.30;;;;;;5015581;28;20586;-87
2023/05/09 04:37:12;;;;;;;3.23;2.80;;;7.60;97.30;;;;;;5015443;28;20498;-88
2023/05/09 04:39:37;;;;;;;2.80;2.60;;;7.60;97.30;;;;;;5015056;28;20200;-87
2023/05/09 04:42:03;;;;;;;2.67;1.50;;;7.60;97.30;;;;;;5051718;23;20560;-88
2023/05/09 04:44:29;;;;;;;2.47;2.30;;;7.70;97.30;;;;;;5034004;28;20651;-87
2023/05/09 04:46:56;;;;;;;8.50;3.37;;;7.70;97.30;;;;;;5033882;28;20528;-87
2023/05/09 04:49:22;;;;;;;2.97;2.77;;;7.80;97.30;;;;;;5034536;28;20187;-87
2023/05/09 04:51:47;;;;;;;2.37;2.20;;;7.80;97.30;;;;;;5052520;28;20438;-87
2023/05/09 04:54:13;;;;;;;3.00;2.63;;;7.90;97.30;;;;;;5034636;28;20180;-86
2023/05/09 04:56:39;;;;;;;3.77;2.60;;;7.90;97.30;;;;;;5033040;28;20183;-87
2023/05/09 04:59:04;;;;;;;1.40;1.30;;;7.90;97.30;;;;;;5051249;28;20559;-87
2023/05/09 05:01:30;;;;;;;3.13;2.53;;;7.90;97.30;;;;;;5032683;28;20196;-87
2023/05/09 05:03:55;;;;;;;2.47;2.27;;;7.90;97.30;;;;;;5051474;28;20179;-88
2023/05/09 05:06:20;;;;;;;2.37;1.80;;;8.00;97.30;;;;;;5033706;28;20230;-87
2023/05/09 05:08:46;;;;;;;2.97;2.83;;;8.00;97.30;;;;;;5033841;28;20188;-87
2023/05/09 05:11:12;;;;;;;2.70;1.90;;;8.10;97.30;;;;;;5051585;28;20238;-87
2023/05/09 05:13:37;;;;;;;6.27;2.47;;;8.10;97.30;;;;;;5033817;28;20560;-87
2023/05/09 05:16:03;;;;;;;3.33;2.47;;;8.20;97.30;;;;;;5033762;28;20467;-87
2023/05/09 05:18:29;;;;;;;8.83;2.63;;;8.30;97.30;;;;;;5033553;28;20266;-87
2023/05/09 05:20:55;;;;;;;12.87;3.20;;;8.30;97.30;;;;;;5033445;28;20196;-88
2023/05/09 05:23:20;;;;;;;2.43;1.63;;;8.40;97.30;;;;;;5051545;28;20187;-87
2023/05/09 05:25:46;;;;;;;5.20;2.70;;;8.50;97.30;;;;;;5036159;28;20669;-87
2023/05/09 05:28:11;;;;;;;2.20;2.00;;;8.60;97.30;;;;;;5040445;28;20547;-86
2023/05/09 05:30:36;;;;;;;3.10;2.90;;;8.60;97.30;;;;;;5041689;28;20218;-87
2023/05/09 05:33:02;;;;;;;4.97;1.97;;;8.70;97.30;;;;;;5043179;28;20175;-87
2023/05/09 05:35:28;;;;;;;2.60;2.40;;;8.80;97.30;;;;;;5039178;28;20540;-86
2023/05/09 05:37:53;;;;;;;1.50;1.40;;;8.90;97.30;;;;;;5039144;28;20183;-87
2023/05/09 05:40:19;;;;;;;1.67;1.57;;;9.00;97.30;;;;;;5036565;28;20203;-88
2023/05/09 05:42:45;;;;;;;2.17;2.00;;;9.00;97.30;;;;;;5033267;28;20192;-87
2023/05/09 05:45:11;;;;;;;8.97;3.37;;;9.10;97.30;;;;;;5033364;28;20513;-86
2023/05/09 05:47:36;;;;;;;2.40;1.93;;;9.20;97.10;;;;;;5036571;28;20205;-87
2023/05/09 05:50:05;;;;;;;2.27;1.40;;;9.20;96.70;;;;;;5041561;28;20215;-89
2023/05/09 05:52:31;;;;;;;2.50;2.30;;;9.30;96.70;;;;;;5082911;28;20179;-87
2023/05/09 05:54:57;;;;;;;5.63;2.80;;;9.40;96.70;;;;;;5041520;28;20439;-86
2023/05/09 05:57:23;;;;;;;2.30;1.67;;;9.50;96.40;;;;;;5032271;28;20424;-87
2023/05/09 05:59:50;;;;;;;6.63;2.93;;;9.50;96.40;;;;;;5051121;28;20670;-88
2023/05/09 06:02:16;;;;;;;2.80;2.63;;;9.60;96.40;;;;;;5050870;28;20670;-87
2023/05/09 06:04:41;;;;;;;3.47;2.07;;;9.70;96.00;;;;;;5033246;28;20429;-87
2023/05/09 06:07:07;;;;;;;1.93;1.83;;;9.80;96.10;;;;;;5033050;28;20932;-87
2023/05/09 06:09:32;;;;;;;2.93;2.10;;;9.80;95.70;;;;;;5034533;28;20278;-88
2023/05/09 06:11:58;;;;;;;2.77;2.60;;;9.90;95.90;;;;;;5032538;28;20203;-87
2023/05/09 06:14:24;;;;;;;3.77;3.57;;;10.00;95.80;;;;;;5032853;28;20172;-87
2023/05/09 06:16:50;;;;;;;2.23;2.10;;;10.10;95.70;;;;;;5032770;28;20711;-87
2023/05/09 06:19:16;;;;;;;2.07;1.93;;;10.20;96.00;;;;;;5040260;28;20172;-87
2023/05/09 06:21:42;;;;;;;2.93;2.47;;;10.30;95.60;;;;;;5049223;28;20983;-87
2023/05/09 06:24:08;;;;;;;2.97;1.43;;;10.40;95.20;;;;;;5031171;28;20310;-87
2023/05/09 06:26:34;;;;;;;1.60;1.50;;;10.50;94.90;;;;;;5031723;28;20999;-88
2023/05/09 06:28:59;;;;;;;1.67;1.57;;;10.60;94.60;;;;;;5032258;28;20172;-87
2023/05/09 06:31:25;;;;;;;3.40;2.00;;;10.70;93.90;;;;;;5032436;28;20755;-87
2023/05/09 06:33:50;;;;;;;2.87;2.20;;;10.80;93.40;;;;;;5032606;28;20180;-87
2023/05/09 06:36:16;;;;;;;5.73;2.23;;;10.90;93.70;;;;;;5032301;28;20176;-89
2023/05/09 06:38:41;;;;;;;3.73;2.00;;;11.00;94.00;;;;;;5032619;28;20578;-88
2023/05/09 06:41:07;;;;;;;9.20;3.00;;;11.20;93.70;;;;;;5032226;28;20232;-88
2023/05/09 06:43:32;;;;;;;3.07;2.53;;;11.30;93.10;;;;;;5032160;28;20179;-88
2023/05/09 06:45:57;;;;;;;5.60;4.13;;;11.40;92.80;;;;;;5032579;28;20183;-87
2023/05/09 06:48:24;;;;;;;1.60;1.50;;;11.50;93.70;;;;;;5032208;28;20215;-87
2023/05/09 06:50:49;;;;;;;2.80;1.70;;;11.70;92.80;;;;;;5032349;28;20265;-87
2023/05/09 06:53:15;;;;;;;9.50;1.93;;;11.80;91.80;;;;;;5032412;28;20909;-88
2023/05/09 06:55:41;;;;;;;3.33;1.57;;;11.90;91.40;;;;;;5032296;28;20191;-87
2023/05/09 06:58:06;;;;;;;11.37;2.17;;;12.00;91.70;;;;;;5032439;28;20172;-88
2023/05/09 07:00:32;;;;;;;2.90;1.90;;;12.10;91.70;;;;;;5032147;28;20491;-87
2023/05/09 07:02:57;;;;;;;3.60;1.53;;;12.20;91.10;;;;;;5032294;28;20187;-88
2023/05/09 07:05:23;;;;;;;1.90;1.80;;;12.40;91.20;;;;;;5032471;28;20190;-87
2023/05/09 07:07:48;;;;;;;4.10;2.23;;;12.50;91.30;;;;;;5032663;28;20547;-87
2023/05/09 07:10:14;;;;;;;3.03;2.23;;;12.60;90.70;;;;;;5036457;28;20215;-88
2023/05/09 07:12:40;;;;;;;14.53;3.40;;;12.60;90.30;;;;;;5036303;28;20180;-87
2023/05/09 07:15:06;;;;;;;3.03;2.43;;;12.70;89.10;;;;;;5036248;28;20531;-87
2023/05/09 07:17:32;;;;;;;2.50;2.37;;;12.80;89.60;;;;;;5054031;28;20934;-87
2023/05/09 07:19:57;;;;;;;2.43;2.03;;;12.90;88.80;;;;;;5035887;28;20407;-87
2023/05/09 07:22:23;;;;;;;2.57;2.40;;;12.90;88.20;;;;;;5035914;28;20560;-87
2023/05/09 07:24:49;;;;;;;4.57;3.03;;;13.10;88.30;;;;;;5053783;28;20180;-88
2023/05/09 07:27:15;;;;;;;5.80;3.20;;;13.10;88.00;;;;;;5036022;28;20423;-87
2023/05/09 07:29:40;;;;;;;4.30;1.83;;;13.30;88.00;;;;;;5036392;28;20429;-88
2023/05/09 07:32:06;;;;;;;1.30;1.20;;;13.40;88.00;;;;;;5034674;28;20204;-87
2023/05/09 07:34:31;;;;;;;1.53;1.43;;;13.50;87.90;;;;;;5034998;28;20176;-87
2023/05/09 07:36:57;;;;;;;2.33;1.97;;;13.50;86.10;;;;;;5034656;28;20184;-88
2023/05/09 07:39:23;;;;;;;2.10;1.87;;;13.50;85.90;;;;;;5052941;28;20180;-87
2023/05/09 07:41:48;;;;;;;5.03;2.57;;;13.60;86.40;;;;;;5035711;28;20232;-88
2023/05/09 07:44:14;;;;;;;4.67;2.60;;;13.70;86.80;;;;;;5035622;28;20216;-87
2023/05/09 07:46:40;;;;;;;5.97;2.00;;;13.80;86.70;;;;;;5053708;28;20520;-87
2023/05/09 07:49:06;;;;;;;1.77;1.67;;;14.00;86.60;;;;;;5053518;28;20209;-87
2023/05/09 07:51:32;;;;;;;3.87;2.30;;;14.10;86.10;;;;;;5035345;28;20466;-87
2023/05/09 07:53:57;;;;;;;2.70;2.10;;;14.20;85.30;;;;;;5035400;28;20259;-87
2023/05/09 07:56:23;;;;;;;2.57;1.80;;;14.30;85.60;;;;;;5035651;28;20225;-87
2023/05/09 07:58:48;;;;;;;1.77;1.40;;;14.40;84.80;;;;;;5053102;28;20180;-88
2023/05/09 08:01:14;;;;;;;2.80;2.07;;;14.50;85.10;;;;;;5035560;28;20203;-89
2023/05/09 08:03:40;;;;;;;2.63;2.33;;;14.60;85.10;;;;;;5053523;28;20305;-86
2023/05/09 08:06:06;;;;;;;1.53;1.40;;;14.80;85.10;;;;;;5027339;28;20716;-87
2023/05/09 08:08:31;;;;;;;2.70;2.00;;;14.90;84.00;;;;;;5035313;28;20595;-87
2023/05/09 08:10:57;;;;;;;1.43;1.33;;;15.00;83.90;;;;;;5035096;28;20212;-88
2023/05/09 08:13:22;;;;;;;4.67;2.47;;;15.10;84.20;;;;;;5035067;28;20204;-87
2023/05/09 08:15:48;;;;;;;2.70;2.03;;;15.30;83.80;;;;;;5034913;28;20176;-88
2023/05/09 08:18:14;;;;;;;2.10;1.73;;;15.40;83.70;;;;;;5034789;28;20207;-88
2023/05/09 08:20:40;;;;;;;3.07;2.40;;;15.60;82.30;;;;;;5034000;28;20554;-87
2023/05/09 08:23:06;;;;;;;1.90;1.77;;;15.60;82.50;;;;;;5034806;28;20239;-89
2023/05/09 08:25:31;;;;;;;2.07;1.77;;;15.70;82.60;;;;;;5035006;28;20507;-88
2023/05/09 08:27:57;;;;;;;3.77;3.50;;;15.80;83.00;;;;;;5034758;28;20844;-88
2023/05/09 08:30:23;;;;;;;1.90;1.77;;;15.80;81.10;;;;;;5035083;28;20749;-87
2023/05/09 08:32:48;;;;;;;9.80;2.20;;;15.90;82.50;;;;;;5034801;28;20241;-88
2023/05/09 08:35:14;;;;;;;1.87;1.80;;;16.00;81.70;;;;;;5034902;28;20212;-87
2023/05/09 08:37:39;;;;;;;9.40;2.80;;;16.10;83.20;;;;;;5034733;28;20434;-88
2023/05/09 08:40:09;;;;;;;2.50;2.30;;;16.20;82.10;;;;;;5034336;28;20187;-87
2023/05/09 08:42:36;;;;;;;1.57;1.53;;;16.30;81.00;;;;;;5034196;28;20477;-88
2023/05/09 08:45:08;;;;;;;1.77;1.70;;;16.30;81.50;;;;;;5034410;28;20430;-87
2023/05/09 08:47:36;;;;;;;3.03;2.20;;;16.40;82.60;;;;;;5052154;28;20422;-87
2023/05/09 08:50:03;;;;;;;2.80;2.27;;;16.50;81.60;;;;;;5052013;28;21033;-87
2023/05/09 08:52:30;;;;;;;2.47;1.40;;;16.60;81.70;;;;;;5034491;28;20427;-87
2023/05/09 08:54:56;;;;;;;1.73;1.63;;;16.70;82.50;;;;;;5030775;28;20422;-88
2023/05/09 08:57:22;;;;;;;3.07;1.77;;;16.90;81.40;;;;;;5033287;28;20422;-88
2023/05/09 08:59:48;;;;;;;3.13;2.30;;;17.00;80.50;;;;;;5033094;28;20278;-88
2023/05/09 09:02:14;;;;;;;1.87;1.80;;;17.10;79.00;;;;;;5033849;28;20434;-89
2023/05/09 09:04:39;;;;;;;4.40;1.73;;;17.10;80.30;;;;;;5033456;28;20557;-89
2023/05/09 09:07:07;;;;;;;4.20;1.90;;;17.20;80.80;;;;;;5033197;28;20180;-89
2023/05/09 09:09:35;;;;;;;4.23;2.03;;;17.40;80.80;;;;;;5033469;28;20184;-88
2023/05/09 09:12:05;;;;;;;5.17;2.20;;;17.50;80.40;;;;;;5033592;28;20525;-89
2023/05/09 09:14:34;;;;;;;2.40;2.20;;;17.60;80.50;;;;;;5033726;28;20616;-88
2023/05/09 09:17:00;;;;;;;3.27;1.73;;;17.80;78.70;;;;;;5033837;28;20967;-87
2023/05/09 09:19:30;;;;;;;1.80;1.73;;;17.80;79.30;;;;;;5051483;28;20423;-87
2023/05/09 09:21:58;;;;;;;1.43;1.33;;;17.90;79.10;;;;;;5033609;28;20521;-88
2023/05/09 09:24:24;;;;;;;2.77;1.43;;;18.10;78.70;;;;;;5051574;28;20480;-88
2023/05/09 09:26:50;;;;;;;2.97;2.13;;;18.30;79.40;;;;;;5033641;28;20485;-87
2023/05/09 09:29:17;;;;;;;4.20;2.63;;;18.50;80.10;;;;;;5033507;28;20618;-87
2023/05/09 09:31:50;;;;;;;3.63;1.60;;;18.50;79.00;;;;;;5051271;28;20515;-87
2023/05/09 09:34:21;;;;;;;1.80;1.70;;;18.50;78.70;;;;;;5026402;28;20635;-87
2023/05/09 09:36:47;;;;;;;1.90;1.80;;;18.50;78.90;;;;;;5033269;28;20422;-87
2023/05/09 09:39:13;;;;;;;1.20;1.10;;;18.50;80.30;;;;;;5033299;28;20422;-88
2023/05/09 09:41:39;;;;;;;1.93;1.77;;;18.60;79.80;;;;;;5033233;28;20466;-87
2023/05/09 09:44:07;;;;;;;5.63;2.17;;;18.80;81.00;;;;;;5033079;28;20836;-87
2023/05/09 09:46:49;;;;;;;1.90;1.80;;;18.90;78.00;;;;;;5033304;28;20839;-87
2023/05/09 09:49:17;;;;;;;2.83;1.90;;;18.80;78.60;;;;;;5043397;28;20509;-88
2023/05/09 09:51:43;;;;;;;2.37;2.20;;;18.80;76.70;;;;;;5050908;28;20469;-87
2023/05/09 09:54:13;;;;;;;2.60;1.87;;;18.90;77.70;;;;;;5050927;28;20502;-87
2023/05/09 09:56:47;;;;;;;6.67;2.60;;;18.90;77.10;;;;;;5033187;28;20414;-87
2023/05/09 09:59:17;;;;;;;1.77;1.70;;;19.00;78.00;;;;;;5024987;28;20418;-88
2023/05/09 10:01:56;;;;;;;4.13;2.97;;;19.10;78.30;;;;;;5033022;28;20475;-88
2023/05/09 10:04:22;;;;;;;7.37;1.70;;;19.30;78.60;;;;;;5032709;28;20434;-88
2023/05/09 10:06:55;;;;;;;3.20;2.17;;;19.30;77.00;;;;;;5032764;28;20426;-87
2023/05/09 10:09:23;;;;;;;7.10;2.23;;;19.40;78.50;;;;;;5032519;28;20430;-87
2023/05/09 10:11:50;;;;;;;7.33;1.70;;;19.40;76.30;;;;;;5050039;28;20493;-87
2023/05/09 10:14:19;;;;;;;1.80;1.70;;;19.50;77.80;;;;;;5032386;28;20418;-90
2023/05/09 10:16:50;;;;;;;5.00;1.87;;;19.50;75.90;;;;;;5032881;28;20414;-89
2023/05/09 10:19:20;;;;;;;2.47;1.47;;;19.50;77.40;;;;;;5023818;28;20418;-88
2023/05/09 10:21:52;;;;;;;5.47;2.00;;;19.50;76.20;;;;;;5032663;28;20940;-87
2023/05/09 10:24:32;;;;;;;5.20;3.37;;;19.50;75.50;;;;;;5025073;28;20953;-87
2023/05/09 10:27:03;;;;;;;5.13;2.23;;;19.60;75.40;;;;;;5032602;28;20432;-88
2023/05/09 10:29:33;;;;;;;4.93;1.80;;;19.60;74.50;;;;;;5050520;28;20450;-87
2023/05/09 10:32:05;;;;;;;1.83;1.70;;;19.70;76.40;;;;;;5032233;28;20469;-87
2023/05/09 10:34:33;;;;;;;2.30;2.10;;;19.90;74.70;;;;;;5032386;28;20418;-87
2023/05/09 10:36:59;;;;;;;3.37;2.47;;;20.10;72.40;;;;;;5030530;28;20426;-87
2023/05/09 10:39:26;;;;;;;2.23;1.50;;;20.20;73.80;;;;;;5032506;28;20446;-88
2023/05/09 10:44:40;;;;;;;2.07;1.93;;;20.40;74.20;;;;;;5068754;28;20896;-89
2023/05/09 10:47:06;;;;;;;3.20;2.10;;;20.40;72.00;;;;;;5071037;28;20451;-87
2023/05/09 10:49:31;;;;;;;3.80;1.97;;;20.40;71.80;;;;;;5053085;28;20430;-87
2023/05/09 10:51:57;;;;;;;1.80;1.43;;;20.30;71.80;;;;;;5071467;28;20584;-88
2023/05/09 10:54:27;;;;;;;3.00;2.00;;;20.50;73.00;;;;;;5053564;28;20654;-87
2023/05/09 10:56:53;;;;;;;1.70;1.60;;;20.70;72.80;;;;;;5072245;28;20228;-90
2023/05/09 10:59:41;;;;;;;3.60;2.33;;;20.80;72.10;;;;;;5053781;28;20826;-90
2023/05/09 11:02:18;;;;;;;1.80;1.50;;;20.90;72.40;;;;;;5053269;28;20456;-88
2023/05/09 11:04:44;;;;;;;2.23;1.40;;;20.90;71.10;;;;;;5053454;28;20421;-87
2023/05/09 11:07:26;;;;;;;1.40;1.23;;;21.10;72.20;;;;;;5058331;28;21048;-88
2023/05/09 11:10:16;;;;;;;3.13;2.23;;;21.20;73.10;;;;;;5061212;28;20179;-88
2023/05/09 11:12:59;;;;;;;1.53;1.50;;;21.40;71.40;;;;;;5058256;28;20433;-89
2023/05/09 11:15:26;;;;;;;1.00;1.00;;;21.30;72.10;;;;;;5071488;28;20429;-91
2023/05/09 11:18:06;;;;;;;1.63;1.60;;;21.50;71.90;;;;;;5080623;28;20990;-88
2023/05/09 11:20:34;;;;;;;3.53;1.90;;;21.40;70.30;;;;;;5072208;28;20444;-89
2023/05/09 11:23:02;;;;;;;5.13;2.00;;;21.50;71.70;;;;;;5053049;28;20425;-88
2023/05/09 11:25:28;;;;;;;4.97;2.37;;;21.60;71.90;;;;;;5052659;28;20512;-87
2023/05/09 11:27:59;;;;;;;2.23;1.77;;;21.60;71.00;;;;;;5070934;28;20499;-88
2023/05/09 11:30:38;;;;;;;2.50;2.03;;;21.70;72.70;;;;;;5052832;28;20264;-87
2023/05/09 11:33:05;;;;;;;1.40;1.30;;;21.70;72.00;;;;;;5051952;28;20467;-88
2023/05/09 11:35:32;;;;;;;3.87;1.77;;;21.80;71.30;;;;;;5055032;28;20436;-89
2023/05/09 11:38:05;;;;;;;1.43;1.33;;;21.90;71.00;;;;;;5052266;28;20460;-86
2023/05/09 11:40:32;;;;;;;2.07;1.93;;;21.90;70.30;;;;;;5051156;28;20464;-88
2023/05/09 11:42:59;;;;;;;1.40;1.30;;;21.90;72.00;;;;;;5052011;28;20515;-88
2023/05/09 11:45:27;;;;;;;2.20;1.63;;;21.90;70.40;;;;;;5052297;28;20464;-87
2023/05/09 11:47:53;;;;;;;1.70;1.60;;;22.00;72.30;;;;;;5079865;28;20416;-87
2023/05/09 11:50:19;;;;;;;1.50;1.20;;;22.00;69.80;;;;;;5060558;28;20837;-87
2023/05/09 11:52:47;;;;;;;3.93;1.97;;;22.10;70.60;;;;;;5052746;28;20187;-88
2023/05/09 11:55:14;;;;;;;1.90;1.83;;;22.20;71.90;;;;;;5052880;28;20432;-88
2023/05/09 11:57:41;;;;;;;3.47;2.03;;;22.30;70.20;;;;;;5055774;28;20436;-88
2023/05/09 12:00:09;;;;;;;3.87;1.67;;;22.40;69.30;;;;;;5063969;28;20424;-88
2023/05/09 12:02:35;;;;;;;1.30;1.20;;;22.40;69.50;;;;;;5073408;28;20429;-87
2023/05/09 12:05:14;;;;;;;2.20;1.80;;;22.50;71.40;;;;;;5055687;28;20437;-88
2023/05/09 12:07:40;;;;;;;2.17;1.63;;;22.70;69.60;;;;;;5058481;28;20425;-88
2023/05/09 12:10:07;;;;;;;1.40;1.10;;;22.80;71.10;;;;;;5076013;28;20467;-92
2023/05/09 12:12:35;;;;;;;6.13;1.53;;;22.90;70.40;;;;;;5076275;28;20475;-89
2023/05/09 12:15:06;;;;;;;1.77;1.47;;;23.00;71.90;;;;;;5074235;28;20416;-88
2023/05/09 12:17:33;;;;;;;3.10;1.73;;;23.10;68.90;;;;;;5055687;28;20410;-88
2023/05/09 12:20:00;;;;;;;5.70;2.70;;;23.00;68.40;;;;;;5073737;28;20496;-87
2023/05/09 12:22:26;;;;;;;2.00;1.90;;;23.10;68.60;;;;;;5063649;28;20452;-88
2023/05/09 12:24:53;;;;;;;5.70;2.50;;;23.10;69.30;;;;;;5055433;28;20418;-88
2023/05/09 12:27:18;;;;;;;2.20;1.70;;;23.10;70.70;;;;;;5039126;28;20546;-88
2023/05/09 12:29:46;;;;;;;1.60;1.50;;;23.20;68.70;;;;;;5063547;28;20490;-88
2023/05/09 12:32:14;;;;;;;4.47;2.17;;;23.40;69.30;;;;;;5054856;28;20202;-89
2023/05/09 12:34:40;;;;;;;1.87;1.80;;;23.60;67.60;;;;;;5055076;28;20423;-88
2023/05/09 12:37:15;;;;;;;4.90;1.87;;;23.50;70.30;;;;;;5054601;28;20928;-91
2023/05/09 12:39:40;;;;;;;2.50;1.70;;;23.70;67.90;;;;;;5055059;28;20431;-88
2023/05/09 12:42:11;;;;;;;1.90;1.60;;;23.70;67.30;;;;;;5054850;28;20979;-88
2023/05/09 12:44:37;;;;;;;2.03;1.50;;;23.70;66.80;;;;;;5055063;28;20264;-87
2023/05/09 12:47:03;;;;;;;1.27;1.23;;;23.70;66.40;;;;;;5054933;28;20833;-87
2023/05/09 12:49:30;;;;;;;2.63;2.00;;;23.50;66.80;;;;;;5054855;28;20213;-90
2023/05/09 12:51:58;;;;;;;1.93;1.27;;;23.60;66.80;;;;;;5071014;28;20975;-88
2023/05/09 12:54:25;;;;;;;2.20;2.00;;;23.70;67.50;;;;;;5054058;28;20942;-88